createdAt,value
2024-01-15T12:50:10.390Z,0.50
2024-01-15T12:50:34.372Z,0.50
2024-01-15T18:16:30.382Z,0.21
2024-01-15T18:17:26.037Z,0.20
2024-01-15T18:23:50.814Z,0.18
2024-01-15T22:58:38.030Z,-0.05
2024-01-15T22:59:08.644Z,-0.04
2024-01-15T23:00:11.708Z,-0.04
2024-01-15T23:01:21.499Z,-0.01
2024-01-15T23:02:10.561Z,-0.04
2024-01-15T23:03:14.880Z,-0.01
2024-01-15T23:04:25.693Z,-0.01
2024-01-15T23:05:09.970Z,-0.01
2024-01-15T23:06:10.154Z,-0.03
2024-01-15T23:07:09.017Z,0.00
2024-01-15T23:17:01.340Z,-0.03
2024-01-15T23:17:42.732Z,-0.05
2024-01-15T23:18:39.848Z,-0.04
2024-01-15T23:19:41.062Z,-0.05
2024-01-15T23:20:43.621Z,-0.07
2024-01-15T23:21:41.588Z,-0.08
2024-01-15T23:22:41.308Z,-0.05
2024-01-15T23:23:43.122Z,-0.04
2024-01-15T23:24:41.239Z,-0.04
2024-01-15T23:39:33.465Z,-0.04
2024-01-15T23:39:39.554Z,-0.08
2024-01-15T23:40:40.813Z,-0.08
2024-01-15T23:41:44.311Z,-0.07
2024-01-15T23:42:40.877Z,-0.08
2024-01-15T23:43:40.294Z,-0.10
2024-01-15T23:44:41.017Z,-0.10
2024-01-15T23:45:53.838Z,-0.08
2024-01-15T23:46:47.027Z,-0.08
2024-01-15T23:47:42.283Z,-0.10
2024-01-15T23:48:49.850Z,-0.08
2024-01-15T23:49:46.536Z,-0.11
2024-01-15T23:50:47.349Z,-0.10
2024-01-15T23:51:41.086Z,-0.08
2024-01-15T23:52:46.390Z,-0.10
2024-01-15T23:53:44.854Z,-0.08
2024-01-15T23:54:42.297Z,-0.10
2024-01-15T23:55:41.790Z,-0.11
2024-01-15T23:56:50.078Z,-0.10
2024-01-15T23:57:41.699Z,-0.08
2024-01-15T23:58:55.232Z,-0.10
